sensor_id;sensor_type;location;lat;lon;timestamp;pressure;altitude;pressure_sealevel;temperature;humidity
6680;BME280;3376;42.664;23.346;2023-12-22T00:01:35;93023.72;;;2.16;100.00
6680;BME280;3376;42.664;23.346;2023-12-22T00:04:02;92971.41;;;1.96;100.00
6680;BME280;3376;42.664;23.346;2023-12-22T00:06:31;93002.00;;;2.20;100.00
6680;BME280;3376;42.664;23.346;2023-12-22T00:08:58;93010.88;;;2.40;100.00
6680;BME280;3376;42.664;23.346;2023-12-22T00:11:25;92988.41;;;2.27;100.00
6680;BME280;3376;42.664;23.346;2023-12-22T00:13:53;93005.75;;;2.40;100.00
6680;BME280;3376;42.664;23.346;2023-12-22T00:16:20;93005.59;;;2.50;100.00
6680;BME280;3376;42.664;23.346;2023-12-22T00:18:47;93004.78;;;2.57;100.00
6680;BME280;3376;42.664;23.346;2023-12-22T00:21:14;92967.16;;;2.35;100.00
6680;BME280;3376;42.664;23.346;2023-12-22T00:23:41;92978.28;;;2.50;100.00
6680;BME280;3376;42.664;23.346;2023-12-22T00:26:08;92984.66;;;2.54;100.00
6680;BME280;3376;42.664;23.346;2023-12-22T00:28:35;92992.94;;;2.56;100.00
6680;BME280;3376;42.664;23.346;2023-12-22T00:31:03;92979.56;;;2.46;100.00
6680;BME280;3376;42.664;23.346;2023-12-22T00:33:30;92957.94;;;2.26;100.00
6680;BME280;3376;42.664;23.346;2023-12-22T00:35:58;92968.75;;;2.36;100.00
6680;BME280;3376;42.664;23.346;2023-12-22T00:38:25;92923.53;;;1.98;100.00
6680;BME280;3376;42.664;23.346;2023-12-22T00:40:52;92948.34;;;2.20;100.00
6680;BME280;3376;42.664;23.346;2023-12-22T00:43:19;92957.25;;;2.32;100.00
6680;BME280;3376;42.664;23.346;2023-12-22T00:45:46;92957.25;;;2.32;100.00
6680;BME280;3376;42.664;23.346;2023-12-22T00:48:14;92961.44;;;2.33;100.00
6680;BME280;3376;42.664;23.346;2023-12-22T00:50:42;92939.50;;;2.38;100.00
6680;BME280;3376;42.664;23.346;2023-12-22T00:53:09;92943.13;;;2.52;100.00
6680;BME280;3376;42.664;23.346;2023-12-22T00:55:36;92955.88;;;2.60;100.00
6680;BME280;3376;42.664;23.346;2023-12-22T00:58:03;92926.47;;;2.64;100.00
6680;BME280;3376;42.664;23.346;2023-12-22T01:00:30;92935.19;;;2.78;100.00
6680;BME280;3376;42.664;23.346;2023-12-22T01:02:57;92900.50;;;2.53;100.00
6680;BME280;3376;42.664;23.346;2023-12-22T01:05:25;92940.34;;;2.70;100.00
6680;BME280;3376;42.664;23.346;2023-12-22T01:07:52;92929.66;;;2.66;100.00
6680;BME280;3376;42.664;23.346;2023-12-22T01:10:19;92952.00;;;2.72;100.00
6680;BME280;3376;42.664;23.346;2023-12-22T01:12:45;92950.09;;;2.66;100.00
6680;BME280;3376;42.664;23.346;2023-12-22T01:15:13;92940.22;;;2.63;100.00
6680;BME280;3376;42.664;23.346;2023-12-22T01:17:40;92940.09;;;2.57;100.00
6680;BME280;3376;42.664;23.346;2023-12-22T01:20:08;92947.19;;;2.38;100.00
6680;BME280;3376;42.664;23.346;2023-12-22T01:22:37;92934.44;;;2.30;100.00
6680;BME280;3376;42.664;23.346;2023-12-22T01:25:04;92935.88;;;2.33;100.00
6680;BME280;3376;42.664;23.346;2023-12-22T01:27:31;92941.75;;;2.33;100.00
6680;BME280;3376;42.664;23.346;2023-12-22T01:29:58;92922.78;;;2.36;100.00
6680;BME280;3376;42.664;23.346;2023-12-22T01:32:25;92926.66;;;2.24;100.00
6680;BME280;3376;42.664;23.346;2023-12-22T01:34:58;92933.00;;;2.36;100.00
6680;BME280;3376;42.664;23.346;2023-12-22T01:37:29;92900.72;;;2.35;100.00
6680;BME280;3376;42.664;23.346;2023-12-22T01:39:57;92910.94;;;2.35;100.00
6680;BME280;3376;42.664;23.346;2023-12-22T01:42:24;92910.75;;;2.45;100.00
6680;BME280;3376;42.664;23.346;2023-12-22T01:44:51;92886.22;;;2.35;100.00
6680;BME280;3376;42.664;23.346;2023-12-22T01:47:18;92919.13;;;2.61;100.00
6680;BME280;3376;42.664;23.346;2023-12-22T01:49:45;92884.34;;;2.52;100.00
6680;BME280;3376;42.664;23.346;2023-12-22T01:52:12;92889.63;;;2.51;100.00
6680;BME280;3376;42.664;23.346;2023-12-22T01:54:39;92907.16;;;2.62;100.00
6680;BME280;3376;42.664;23.346;2023-12-22T01:57:07;92889.09;;;2.63;100.00
6680;BME280;3376;42.664;23.346;2023-12-22T01:59:35;92905.81;;;2.74;100.00
6680;BME280;3376;42.664;23.346;2023-12-22T02:02:02;92894.00;;;2.73;100.00
6680;BME280;3376;42.664;23.346;2023-12-22T02:04:30;92882.00;;;2.73;100.00
6680;BME280;3376;42.664;23.346;2023-12-22T02:06:58;92912.94;;;2.86;100.00
6680;BME280;3376;42.664;23.346;2023-12-22T02:09:27;92885.72;;;2.93;100.00
6680;BME280;3376;42.664;23.346;2023-12-22T02:11:54;92883.00;;;2.95;100.00
6680;BME280;3376;42.664;23.346;2023-12-22T02:14:23;92896.41;;;2.97;100.00
6680;BME280;3376;42.664;23.346;2023-12-22T02:16:53;92874.44;;;2.88;100.00
6680;BME280;3376;42.664;23.346;2023-12-22T02:19:27;92872.34;;;2.83;100.00
6680;BME280;3376;42.664;23.346;2023-12-22T02:22:00;92883.75;;;3.03;100.00
6680;BME280;3376;42.664;23.346;2023-12-22T02:24:28;92876.84;;;3.04;100.00
6680;BME280;3376;42.664;23.346;2023-12-22T02:27:00;92892.63;;;3.15;100.00
6680;BME280;3376;42.664;23.346;2023-12-22T02:29:31;92868.09;;;3.21;100.00
6680;BME280;3376;42.664;23.346;2023-12-22T02:32:01;92887.28;;;3.39;100.00
6680;BME280;3376;42.664;23.346;2023-12-22T02:34:30;92891.13;;;3.58;100.00
6680;BME280;3376;42.664;23.346;2023-12-22T02:36:58;92889.97;;;3.60;100.00
6680;BME280;3376;42.664;23.346;2023-12-22T02:39:25;92879.13;;;3.58;100.00
6680;BME280;3376;42.664;23.346;2023-12-22T02:41:54;92868.69;;;3.60;100.00
6680;BME280;3376;42.664;23.346;2023-12-22T02:44:21;92873.50;;;3.63;100.00
6680;BME280;3376;42.664;23.346;2023-12-22T02:46:48;92873.31;;;3.65;100.00
6680;BME280;3376;42.664;23.346;2023-12-22T02:49:15;92886.38;;;3.70;100.00
6680;BME280;3376;42.664;23.346;2023-12-22T02:51:44;92882.84;;;3.71;100.00
6680;BME280;3376;42.664;23.346;2023-12-22T02:54:11;92860.56;;;3.56;100.00
6680;BME280;3376;42.664;23.346;2023-12-22T02:56:38;92850.69;;;3.39;100.00
6680;BME280;3376;42.664;23.346;2023-12-22T02:59:06;92851.81;;;3.36;100.00
6680;BME280;3376;42.664;23.346;2023-12-22T03:01:35;92852.81;;;3.50;100.00
6680;BME280;3376;42.664;23.346;2023-12-22T03:04:01;92856.78;;;3.52;100.00
6680;BME280;3376;42.664;23.346;2023-12-22T03:06:28;92847.06;;;3.48;100.00
6680;BME280;3376;42.664;23.346;2023-12-22T03:08:55;92849.78;;;3.46;100.00
6680;BME280;3376;42.664;23.346;2023-12-22T03:11:22;92838.16;;;3.58;100.00
6680;BME280;3376;42.664;23.346;2023-12-22T03:13:49;92839.06;;;3.51;100.00
6680;BME280;3376;42.664;23.346;2023-12-22T03:16:17;92846.47;;;3.46;100.00
6680;BME280;3376;42.664;23.346;2023-12-22T03:18:44;92845.31;;;3.48;100.00
6680;BME280;3376;42.664;23.346;2023-12-22T03:21:16;92838.34;;;3.42;100.00
6680;BME280;3376;42.664;23.346;2023-12-22T03:23:44;92831.97;;;3.38;100.00
6680;BME280;3376;42.664;23.346;2023-12-22T03:26:11;92860.31;;;3.51;100.00
6680;BME280;3376;42.664;23.346;2023-12-22T03:28:38;92847.31;;;3.38;100.00
6680;BME280;3376;42.664;23.346;2023-12-22T03:31:05;92856.25;;;3.42;100.00
6680;BME280;3376;42.664;23.346;2023-12-22T03:33:34;92852.44;;;3.38;100.00
6680;BME280;3376;42.664;23.346;2023-12-22T03:36:01;92858.53;;;3.37;100.00
6680;BME280;3376;42.664;23.346;2023-12-22T03:38:28;92853.63;;;3.28;100.00
6680;BME280;3376;42.664;23.346;2023-12-22T03:40:55;92853.00;;;3.26;100.00
6680;BME280;3376;42.664;23.346;2023-12-22T03:43:22;92856.44;;;3.41;100.00
6680;BME280;3376;42.664;23.346;2023-12-22T03:45:49;92662.47;;;2.04;100.00
6680;BME280;3376;42.664;23.346;2023-12-22T03:48:16;92841.16;;;3.10;100.00
6680;BME280;3376;42.664;23.346;2023-12-22T03:50:44;92821.50;;;3.11;100.00
6680;BME280;3376;42.664;23.346;2023-12-22T03:53:11;92819.91;;;3.10;100.00
6680;BME280;3376;42.664;23.346;2023-12-22T03:55:38;92848.34;;;3.29;100.00
6680;BME280;3376;42.664;23.346;2023-12-22T03:58:05;92847.03;;;3.33;100.00
6680;BME280;3376;42.664;23.346;2023-12-22T04:00:33;92852.78;;;3.35;100.00
6680;BME280;3376;42.664;23.346;2023-12-22T04:03:00;92848.31;;;3.37;100.00
6680;BME280;3376;42.664;23.346;2023-12-22T04:05:27;92852.34;;;3.46;100.00
6680;BME280;3376;42.664;23.346;2023-12-22T04:07:55;92840.53;;;3.45;100.00
6680;BME280;3376;42.664;23.346;2023-12-22T04:10:22;92854.16;;;3.60;100.00
6680;BME280;3376;42.664;23.346;2023-12-22T04:12:49;92861.38;;;3.57;100.00
6680;BME280;3376;42.664;23.346;2023-12-22T04:15:16;92854.16;;;3.60;100.00
6680;BME280;3376;42.664;23.346;2023-12-22T04:17:43;92847.94;;;3.55;100.00
6680;BME280;3376;42.664;23.346;2023-12-22T04:20:10;92855.91;;;3.60;100.00
6680;BME280;3376;42.664;23.346;2023-12-22T04:22:38;92859.19;;;3.69;100.00
6680;BME280;3376;42.664;23.346;2023-12-22T04:25:07;92825.03;;;3.62;100.00
6680;BME280;3376;42.664;23.346;2023-12-22T04:27:34;92843.81;;;3.69;100.00
6680;BME280;3376;42.664;23.346;2023-12-22T04:30:01;92827.41;;;3.63;100.00
6680;BME280;3376;42.664;23.346;2023-12-22T04:32:28;92838.78;;;3.60;100.00
6680;BME280;3376;42.664;23.346;2023-12-22T04:34:55;92841.44;;;3.67;100.00
6680;BME280;3376;42.664;23.346;2023-12-22T04:37:22;92829.16;;;3.63;100.00
6680;BME280;3376;42.664;23.346;2023-12-22T04:39:49;92819.03;;;3.54;100.00
6680;BME280;3376;42.664;23.346;2023-12-22T04:42:19;92822.75;;;3.67;100.00
6680;BME280;3376;42.664;23.346;2023-12-22T04:44:45;92814.50;;;3.56;100.00
6680;BME280;3376;42.664;23.346;2023-12-22T04:47:13;92787.78;;;3.44;100.00
6680;BME280;3376;42.664;23.346;2023-12-22T04:49:40;92820.78;;;3.69;100.00
6680;BME280;3376;42.664;23.346;2023-12-22T04:52:07;92807.72;;;3.63;100.00
6680;BME280;3376;42.664;23.346;2023-12-22T04:54:34;92812.50;;;3.67;100.00
6680;BME280;3376;42.664;23.346;2023-12-22T04:57:01;92821.13;;;3.66;100.00
6680;BME280;3376;42.664;23.346;2023-12-22T04:59:29;92780.59;;;3.40;100.00
6680;BME280;3376;42.664;23.346;2023-12-22T05:01:56;92817.63;;;3.67;100.00
6680;BME280;3376;42.664;23.346;2023-12-22T05:04:23;92804.38;;;3.78;100.00
6680;BME280;3376;42.664;23.346;2023-12-22T05:06:50;92795.19;;;3.83;100.00
6680;BME280;3376;42.664;23.346;2023-12-22T05:09:17;92795.09;;;3.77;100.00
6680;BME280;3376;42.664;23.346;2023-12-22T05:11:44;92809.50;;;3.78;100.00
6680;BME280;3376;42.664;23.346;2023-12-22T05:14:11;92800.13;;;3.85;100.00
6680;BME280;3376;42.664;23.346;2023-12-22T05:16:38;92806.94;;;3.78;100.00
6680;BME280;3376;42.664;23.346;2023-12-22T05:19:05;92799.25;;;3.78;100.00
6680;BME280;3376;42.664;23.346;2023-12-22T05:21:32;92802.06;;;3.83;100.00
6680;BME280;3376;42.664;23.346;2023-12-22T05:23:59;92789.97;;;3.91;100.00
6680;BME280;3376;42.664;23.346;2023-12-22T05:26:26;92782.81;;;3.87;100.00
6680;BME280;3376;42.664;23.346;2023-12-22T05:28:55;92784.22;;;4.04;100.00
6680;BME280;3376;42.664;23.346;2023-12-22T05:31:23;92813.91;;;4.13;100.00
6680;BME280;3376;42.664;23.346;2023-12-22T05:33:50;92814.34;;;4.16;100.00
6680;BME280;3376;42.664;23.346;2023-12-22T05:36:17;92808.03;;;4.19;100.00
6680;BME280;3376;42.664;23.346;2023-12-22T05:38:44;92838.16;;;4.17;100.00
6680;BME280;3376;42.664;23.346;2023-12-22T05:41:11;92814.41;;;4.08;100.00
6680;BME280;3376;42.664;23.346;2023-12-22T05:43:38;92807.56;;;3.94;100.00
6680;BME280;3376;42.664;23.346;2023-12-22T05:46:05;92815.25;;;3.94;100.00
6680;BME280;3376;42.664;23.346;2023-12-22T05:48:34;92805.06;;;4.01;100.00
6680;BME280;3376;42.664;23.346;2023-12-22T05:51:02;92802.06;;;3.97;100.00
6680;BME280;3376;42.664;23.346;2023-12-22T05:53:32;92803.81;;;3.97;100.00
6680;BME280;3376;42.664;23.346;2023-12-22T05:55:59;92807.09;;;4.05;100.00
6680;BME280;3376;42.664;23.346;2023-12-22T05:58:26;92810.81;;;4.03;100.00
6680;BME280;3376;42.664;23.346;2023-12-22T06:00:53;92799.47;;;4.12;100.00
6680;BME280;3376;42.664;23.346;2023-12-22T06:03:20;92798.97;;;4.16;100.00
6680;BME280;3376;42.664;23.346;2023-12-22T06:05:47;92811.22;;;4.21;100.00
6680;BME280;3376;42.664;23.346;2023-12-22T06:08:15;92795.84;;;4.21;100.00
6680;BME280;3376;42.664;23.346;2023-12-22T06:10:43;92811.84;;;4.23;100.00
6680;BME280;3376;42.664;23.346;2023-12-22T06:13:10;92823.91;;;4.29;100.00
6680;BME280;3376;42.664;23.346;2023-12-22T06:15:37;92812.34;;;4.33;100.00
6680;BME280;3376;42.664;23.346;2023-12-22T06:18:04;92813.34;;;4.32;100.00
6680;BME280;3376;42.664;23.346;2023-12-22T06:20:31;92814.91;;;4.33;100.00
6680;BME280;3376;42.664;23.346;2023-12-22T06:22:58;92816.84;;;4.31;100.00
6680;BME280;3376;42.664;23.346;2023-12-22T06:25:26;92813.34;;;4.32;100.00
6680;BME280;3376;42.664;23.346;2023-12-22T06:27:53;92832.59;;;4.28;100.00
6680;BME280;3376;42.664;23.346;2023-12-22T06:30:20;92828.91;;;4.16;100.00
6680;BME280;3376;42.664;23.346;2023-12-22T06:32:47;92825.97;;;4.19;100.00
6680;BME280;3376;42.664;23.346;2023-12-22T06:35:14;92822.72;;;4.25;100.00
6680;BME280;3376;42.664;23.346;2023-12-22T06:37:42;92828.97;;;4.22;100.00
6680;BME280;3376;42.664;23.346;2023-12-22T06:40:10;92823.53;;;4.11;100.00
6680;BME280;3376;42.664;23.346;2023-12-22T06:42:38;92826.69;;;4.13;100.00
6680;BME280;3376;42.664;23.346;2023-12-22T06:45:06;92829.78;;;4.23;100.00
6680;BME280;3376;42.664;23.346;2023-12-22T06:47:33;92829.59;;;4.24;100.00
6680;BME280;3376;42.664;23.346;2023-12-22T06:50:00;92704.53;;;3.48;100.00
6680;BME280;3376;42.664;23.346;2023-12-22T06:52:28;92827.22;;;4.23;100.00
6680;BME280;3376;42.664;23.346;2023-12-22T06:54:55;92823.59;;;4.32;100.00
6680;BME280;3376;42.664;23.346;2023-12-22T06:57:22;92834.16;;;4.43;100.00
6680;BME280;3376;42.664;23.346;2023-12-22T06:59:51;92697.06;;;3.62;100.00
6680;BME280;3376;42.664;23.346;2023-12-22T07:02:18;92830.44;;;4.46;100.00
6680;BME280;3376;42.664;23.346;2023-12-22T07:05:02;92811.78;;;4.52;100.00
6680;BME280;3376;42.664;23.346;2023-12-22T07:07:32;92830.41;;;4.60;100.00
6680;BME280;3376;42.664;23.346;2023-12-22T07:09:59;92824.47;;;4.60;100.00
6680;BME280;3376;42.664;23.346;2023-12-22T07:12:26;92827.28;;;4.65;100.00
6680;BME280;3376;42.664;23.346;2023-12-22T07:14:55;92830.53;;;4.73;100.00
6680;BME280;3376;42.664;23.346;2023-12-22T07:17:22;92827.53;;;4.70;100.00
6680;BME280;3376;42.664;23.346;2023-12-22T07:19:49;92831.28;;;4.67;100.00
6680;BME280;3376;42.664;23.346;2023-12-22T07:22:17;92840.84;;;4.59;100.00
6680;BME280;3376;42.664;23.346;2023-12-22T07:24:44;92845.16;;;4.58;100.00
6680;BME280;3376;42.664;23.346;2023-12-22T07:27:11;92848.53;;;4.59;100.00
6680;BME280;3376;42.664;23.346;2023-12-22T07:29:40;92848.41;;;4.67;100.00
6680;BME280;3376;42.664;23.346;2023-12-22T07:32:08;92815.53;;;4.35;100.00
6680;BME280;3376;42.664;23.346;2023-12-22T07:34:35;92802.09;;;4.33;100.00
6680;BME280;3376;42.664;23.346;2023-12-22T07:37:02;92848.16;;;4.62;100.00
6680;BME280;3376;42.664;23.346;2023-12-22T07:39:30;92841.03;;;4.57;100.00
6680;BME280;3376;42.664;23.346;2023-12-22T07:41:57;92850.47;;;4.57;100.00
6680;BME280;3376;42.664;23.346;2023-12-22T07:44:24;92850.19;;;4.66;100.00
6680;BME280;3376;42.664;23.346;2023-12-22T07:46:56;92850.47;;;4.57;100.00
6680;BME280;3376;42.664;23.346;2023-12-22T07:49:25;92865.25;;;4.55;100.00
6680;BME280;3376;42.664;23.346;2023-12-22T07:51:52;92860.91;;;4.55;100.00
6680;BME280;3376;42.664;23.346;2023-12-22T07:54:19;92866.56;;;4.65;100.00
6680;BME280;3376;42.664;23.346;2023-12-22T07:56:46;92861.13;;;4.75;100.00
6680;BME280;3376;42.664;23.346;2023-12-22T07:59:13;92880.81;;;4.89;100.00
6680;BME280;3376;42.664;23.346;2023-12-22T08:01:40;92882.91;;;5.00;100.00
6680;BME280;3376;42.664;23.346;2023-12-22T08:04:08;92881.53;;;5.04;100.00
6680;BME280;3376;42.664;23.346;2023-12-22T08:06:37;92881.53;;;5.04;100.00
6680;BME280;3376;42.664;23.346;2023-12-22T08:09:04;92891.47;;;5.07;100.00
6680;BME280;3376;42.664;23.346;2023-12-22T08:11:31;92900.97;;;5.13;100.00
6680;BME280;3376;42.664;23.346;2023-12-22T08:13:58;92879.66;;;5.13;100.00
6680;BME280;3376;42.664;23.346;2023-12-22T08:16:25;92907.28;;;5.32;100.00
6680;BME280;3376;42.664;23.346;2023-12-22T08:18:52;92902.34;;;5.30;100.00
6680;BME280;3376;42.664;23.346;2023-12-22T08:21:19;92908.28;;;5.31;100.00
6680;BME280;3376;42.664;23.346;2023-12-22T08:23:47;92900.88;;;5.42;100.00
6680;BME280;3376;42.664;23.346;2023-12-22T08:26:15;92907.34;;;5.38;100.00
6680;BME280;3376;42.664;23.346;2023-12-22T08:28:43;92906.81;;;5.43;100.00
6680;BME280;3376;42.664;23.346;2023-12-22T08:31:10;92909.31;;;5.36;100.00
6680;BME280;3376;42.664;23.346;2023-12-22T08:33:38;92912.31;;;5.40;100.00
6680;BME280;3376;42.664;23.346;2023-12-22T08:36:07;92908.94;;;5.39;100.00
6680;BME280;3376;42.664;23.346;2023-12-22T08:38:34;92906.91;;;5.35;100.00
6680;BME280;3376;42.664;23.346;2023-12-22T08:41:03;92900.00;;;5.35;100.00
6680;BME280;3376;42.664;23.346;2023-12-22T08:43:30;92908.09;;;5.32;100.00
6680;BME280;3376;42.664;23.346;2023-12-22T08:45:57;92908.75;;;5.41;100.00
6680;BME280;3376;42.664;23.346;2023-12-22T08:48:24;92903.06;;;5.45;100.00
6680;BME280;3376;42.664;23.346;2023-12-22T08:50:51;92913.09;;;5.40;100.00
6680;BME280;3376;42.664;23.346;2023-12-22T08:53:18;92892.13;;;5.37;100.00
6680;BME280;3376;42.664;23.346;2023-12-22T08:55:45;92903.66;;;5.47;100.00
6680;BME280;3376;42.664;23.346;2023-12-22T08:58:13;92906.09;;;5.55;100.00
6680;BME280;3376;42.664;23.346;2023-12-22T09:00:40;92902.00;;;5.61;100.00
6680;BME280;3376;42.664;23.346;2023-12-22T09:03:07;92907.38;;;5.66;100.00
6680;BME280;3376;42.664;23.346;2023-12-22T09:05:34;92918.06;;;5.69;100.00
6680;BME280;3376;42.664;23.346;2023-12-22T09:08:01;92922.50;;;5.75;100.00
6680;BME280;3376;42.664;23.346;2023-12-22T09:10:28;92919.31;;;5.73;100.00
6680;BME280;3376;42.664;23.346;2023-12-22T09:12:55;92930.94;;;5.90;100.00
6680;BME280;3376;42.664;23.346;2023-12-22T09:15:23;92926.25;;;6.01;100.00
6680;BME280;3376;42.664;23.346;2023-12-22T09:17:52;92931.00;;;6.04;100.00
6680;BME280;3376;42.664;23.346;2023-12-22T09:20:21;92935.72;;;6.00;100.00
6680;BME280;3376;42.664;23.346;2023-12-22T09:22:48;92904.00;;;5.86;100.00
6680;BME280;3376;42.664;23.346;2023-12-22T09:25:15;92944.84;;;6.03;100.00
6680;BME280;3376;42.664;23.346;2023-12-22T09:27:42;92921.13;;;6.01;100.00
6680;BME280;3376;42.664;23.346;2023-12-22T09:30:10;92940.56;;;6.10;100.00
6680;BME280;3376;42.664;23.346;2023-12-22T09:32:38;92944.09;;;6.09;100.00
6680;BME280;3376;42.664;23.346;2023-12-22T09:35:05;92936.81;;;5.84;100.00
6680;BME280;3376;42.664;23.346;2023-12-22T09:37:33;92934.06;;;5.86;100.00
6680;BME280;3376;42.664;23.346;2023-12-22T09:40:00;92932.66;;;5.83;100.00
6680;BME280;3376;42.664;23.346;2023-12-22T09:42:27;92909.75;;;5.67;100.00
6680;BME280;3376;42.664;23.346;2023-12-22T09:44:55;92914.41;;;5.78;100.00
6680;BME280;3376;42.664;23.346;2023-12-22T09:47:24;92919.31;;;5.94;100.00
6680;BME280;3376;42.664;23.346;2023-12-22T09:49:57;92908.47;;;5.99;100.00
6680;BME280;3376;42.664;23.346;2023-12-22T09:52:25;92918.81;;;6.12;100.00
6680;BME280;3376;42.664;23.346;2023-12-22T09:54:53;92912.31;;;6.16;100.00
6680;BME280;3376;42.664;23.346;2023-12-22T09:57:21;92919.34;;;6.29;100.00
6680;BME280;3376;42.664;23.346;2023-12-22T09:59:52;92899.13;;;6.26;100.00
6680;BME280;3376;42.664;23.346;2023-12-22T10:02:20;92908.28;;;6.35;100.00
6680;BME280;3376;42.664;23.346;2023-12-22T10:04:47;92904.88;;;6.28;100.00
6680;BME280;3376;42.664;23.346;2023-12-22T10:07:17;92899.38;;;6.31;100.00
6680;BME280;3376;42.664;23.346;2023-12-22T10:09:44;92889.72;;;6.39;100.00
6680;BME280;3376;42.664;23.346;2023-12-22T10:12:14;92885.13;;;6.35;100.00
6680;BME280;3376;42.664;23.346;2023-12-22T10:14:42;92902.22;;;6.49;100.00
6680;BME280;3376;42.664;23.346;2023-12-22T10:17:09;92873.09;;;6.42;100.00
6680;BME280;3376;42.664;23.346;2023-12-22T10:19:37;92880.13;;;6.61;100.00
6680;BME280;3376;42.664;23.346;2023-12-22T10:22:04;92872.22;;;6.69;100.00
6680;BME280;3376;42.664;23.346;2023-12-22T10:24:40;92876.00;;;6.66;100.00
6680;BME280;3376;42.664;23.346;2023-12-22T10:27:09;92870.25;;;6.71;100.00
6680;BME280;3376;42.664;23.346;2023-12-22T10:29:36;92869.72;;;6.82;100.00
6680;BME280;3376;42.664;23.346;2023-12-22T10:32:04;92828.16;;;6.78;100.00
6680;BME280;3376;42.664;23.346;2023-12-22T10:34:32;92858.72;;;7.27;100.00
6680;BME280;3376;42.664;23.346;2023-12-22T10:36:59;92855.56;;;8.03;100.00
6680;BME280;3376;42.664;23.346;2023-12-22T10:39:27;92860.94;;;8.66;100.00
6680;BME280;3376;42.664;23.346;2023-12-22T10:41:56;92728.13;;;8.30;100.00
6680;BME280;3376;42.664;23.346;2023-12-22T10:44:24;92847.81;;;9.18;100.00
6680;BME280;3376;42.664;23.346;2023-12-22T10:46:52;92843.63;;;9.48;100.00
6680;BME280;3376;42.664;23.346;2023-12-22T10:49:19;92846.75;;;9.81;100.00
6680;BME280;3376;42.664;23.346;2023-12-22T10:51:46;92831.84;;;10.26;100.00
6680;BME280;3376;42.664;23.346;2023-12-22T10:54:13;92829.16;;;11.16;100.00
6680;BME280;3376;42.664;23.346;2023-12-22T10:56:40;92828.53;;;12.43;90.83
6680;BME280;3376;42.664;23.346;2023-12-22T10:59:09;92834.06;;;13.82;81.55
6680;BME280;3376;42.664;23.346;2023-12-22T11:01:36;92842.44;;;14.93;74.55
6680;BME280;3376;42.664;23.346;2023-12-22T11:04:06;92852.72;;;16.01;68.46
6680;BME280;3376;42.664;23.346;2023-12-22T11:06:35;92840.94;;;16.67;62.87
6680;BME280;3376;42.664;23.346;2023-12-22T11:09:06;92835.94;;;16.29;62.90
6680;BME280;3376;42.664;23.346;2023-12-22T11:11:35;92812.28;;;15.77;64.38
6680;BME280;3376;42.664;23.346;2023-12-22T11:14:02;92802.47;;;15.58;66.17
6680;BME280;3376;42.664;23.346;2023-12-22T11:16:31;92797.31;;;15.63;66.17
6680;BME280;3376;42.664;23.346;2023-12-22T11:18:59;92782.84;;;15.82;66.69
6680;BME280;3376;42.664;23.346;2023-12-22T11:21:27;92778.41;;;16.19;65.42
6680;BME280;3376;42.664;23.346;2023-12-22T11:23:55;92787.06;;;15.88;65.02
6680;BME280;3376;42.664;23.346;2023-12-22T11:26:23;92793.75;;;15.79;64.29
6680;BME280;3376;42.664;23.346;2023-12-22T11:28:52;92788.63;;;15.30;65.60
6680;BME280;3376;42.664;23.346;2023-12-22T11:31:19;92787.28;;;15.28;65.59
6680;BME280;3376;42.664;23.346;2023-12-22T11:33:49;92803.38;;;15.42;65.54
6680;BME280;3376;42.664;23.346;2023-12-22T11:36:17;92808.50;;;15.37;65.46
6680;BME280;3376;42.664;23.346;2023-12-22T11:38:45;92818.47;;;14.96;65.82
6680;BME280;3376;42.664;23.346;2023-12-22T11:41:18;92818.69;;;15.11;67.20
6680;BME280;3376;42.664;23.346;2023-12-22T11:43:47;92830.75;;;15.66;64.02
6680;BME280;3376;42.664;23.346;2023-12-22T11:46:16;92840.00;;;15.78;62.19
6680;BME280;3376;42.664;23.346;2023-12-22T11:48:48;92840.50;;;15.49;62.59
6680;BME280;3376;42.664;23.346;2023-12-22T11:51:16;92847.34;;;14.90;62.91
6680;BME280;3376;42.664;23.346;2023-12-22T11:53:44;92836.03;;;13.91;64.50
6680;BME280;3376;42.664;23.346;2023-12-22T11:56:12;92836.44;;;13.11;66.54
6680;BME280;3376;42.664;23.346;2023-12-22T11:58:40;92814.56;;;12.21;69.51
6680;BME280;3376;42.664;23.346;2023-12-22T12:01:09;92826.19;;;11.72;72.79
6680;BME280;3376;42.664;23.346;2023-12-22T12:03:37;92829.38;;;11.15;75.70
6680;BME280;3376;42.664;23.346;2023-12-22T12:06:16;92827.16;;;10.71;78.36
6680;BME280;3376;42.664;23.346;2023-12-22T12:08:43;92818.84;;;10.32;82.91
6680;BME280;3376;42.664;23.346;2023-12-22T12:11:10;92821.34;;;9.96;83.61
6680;BME280;3376;42.664;23.346;2023-12-22T12:13:42;92810.59;;;9.50;85.89
6680;BME280;3376;42.664;23.346;2023-12-22T12:16:11;92826.66;;;9.27;86.81
6680;BME280;3376;42.664;23.346;2023-12-22T12:18:39;92822.25;;;9.03;88.06
6680;BME280;3376;42.664;23.346;2023-12-22T12:21:06;92836.63;;;8.86;90.32
6680;BME280;3376;42.664;23.346;2023-12-22T12:23:35;92790.66;;;8.70;89.58
6680;BME280;3376;42.664;23.346;2023-12-22T12:26:03;92809.34;;;8.66;91.36
6680;BME280;3376;42.664;23.346;2023-12-22T12:28:33;92786.16;;;8.59;90.89
6680;BME280;3376;42.664;23.346;2023-12-22T12:31:03;92781.66;;;8.48;91.32
6680;BME280;3376;42.664;23.346;2023-12-22T12:33:30;92783.63;;;8.46;90.48
6680;BME280;3376;42.664;23.346;2023-12-22T12:35:58;92755.53;;;8.18;90.52
6680;BME280;3376;42.664;23.346;2023-12-22T12:38:40;92778.53;;;8.20;89.94
6680;BME280;3376;42.664;23.346;2023-12-22T12:41:10;92763.28;;;8.18;89.07
6680;BME280;3376;42.664;23.346;2023-12-22T12:43:41;92768.06;;;8.08;89.20
6680;BME280;3376;42.664;23.346;2023-12-22T12:46:10;92764.84;;;8.19;89.80
6680;BME280;3376;42.664;23.346;2023-12-22T12:48:37;92737.31;;;8.13;88.76
6680;BME280;3376;42.664;23.346;2023-12-22T12:51:04;92739.28;;;8.11;88.83
6680;BME280;3376;42.664;23.346;2023-12-22T12:53:31;92767.41;;;8.19;88.82
6680;BME280;3376;42.664;23.346;2023-12-22T12:56:01;92764.84;;;8.19;88.88
6680;BME280;3376;42.664;23.346;2023-12-22T12:58:28;92717.97;;;7.78;86.58
6680;BME280;3376;42.664;23.346;2023-12-22T13:01:07;92794.22;;;8.18;84.53
6680;BME280;3376;42.664;23.346;2023-12-22T13:03:51;92807.72;;;8.20;87.10
6680;BME280;3376;42.664;23.346;2023-12-22T13:06:18;92814.22;;;8.23;85.91
6680;BME280;3376;42.664;23.346;2023-12-22T13:08:47;92811.31;;;8.06;85.92
6680;BME280;3376;42.664;23.346;2023-12-22T13:11:16;92773.88;;;7.91;87.11
6680;BME280;3376;42.664;23.346;2023-12-22T13:13:46;92784.34;;;8.02;85.43
6680;BME280;3376;42.664;23.346;2023-12-22T13:16:14;92770.41;;;8.16;82.87